createdAt,value
2018-10-16T00:04:31.746Z,70.38
2018-10-16T00:07:10.199Z,69.58
2018-10-16T00:09:47.356Z,70.05
2018-10-16T00:12:25.590Z,70.64
2018-10-16T00:15:03.759Z,70.18
2018-10-16T00:17:37.938Z,69.99
2018-10-16T00:20:12.272Z,70.11
2018-10-16T00:22:47.445Z,70.14
2018-10-16T00:25:21.851Z,70.45
2018-10-16T00:27:51.270Z,70.27
2018-10-16T00:30:20.590Z,70.41
2018-10-16T00:32:49.920Z,70.83
2018-10-16T00:35:19.270Z,70.26
2018-10-16T00:37:48.637Z,70.06
2018-10-16T00:40:17.942Z,70.25
2018-10-16T00:42:47.244Z,70.21
2018-10-16T00:45:16.574Z,69.87
2018-10-16T00:47:45.886Z,69.97
2018-10-16T00:50:15.215Z,70.17
2018-10-16T00:52:44.523Z,69.89
2018-10-16T00:55:13.854Z,69.73
2018-10-16T00:57:43.177Z,69.67
2018-10-16T01:00:13.419Z,69.46
2018-10-16T01:02:43.654Z,70.29
2018-10-16T01:05:13.701Z,69.91
2018-10-16T01:07:43.458Z,70.08
2018-10-16T01:10:13.647Z,69.82
2018-10-16T01:12:42.948Z,69.86
2018-10-16T01:15:12.866Z,69.85
2018-10-16T01:17:42.218Z,70.02
2018-10-16T01:20:13.198Z,69.84
2018-10-16T01:22:42.984Z,69.34
2018-10-16T01:25:13.137Z,69.54
2018-10-16T01:27:42.495Z,69.97
2018-10-16T01:30:11.819Z,70.17
2018-10-16T01:32:41.141Z,70.46
2018-10-16T01:35:11.615Z,70.46
2018-10-16T01:37:41.264Z,70.43
2018-10-16T01:40:11.489Z,70.72
2018-10-16T01:42:40.819Z,70.84
2018-10-16T01:45:10.867Z,70.93
2018-10-16T01:47:40.202Z,71.59
2018-10-16T01:50:15.333Z,71.28
2018-10-16T01:52:44.651Z,71.41
2018-10-16T01:55:13.980Z,70.79
2018-10-16T01:57:43.312Z,70.69
2018-10-16T02:00:12.634Z,71.20
2018-10-16T02:02:42.032Z,71.61
2018-10-16T02:05:11.332Z,71.11
2018-10-16T02:07:40.700Z,71.33
2018-10-16T02:10:10.385Z,70.99
2018-10-16T02:12:40.025Z,71.06
2018-10-16T02:15:10.067Z,71.17
2018-10-16T02:17:40.336Z,71.51
2018-10-16T02:20:10.296Z,72.23
2018-10-16T02:22:40.315Z,71.97
2018-10-16T02:25:10.766Z,72.16
2018-10-16T02:27:40.991Z,71.89
2018-10-16T02:30:10.964Z,72.06
2018-10-16T02:32:40.299Z,71.83
2018-10-16T02:35:10.629Z,72.03
2018-10-16T02:37:40.003Z,71.99
2018-10-16T02:40:10.326Z,72.25
2018-10-16T02:42:40.356Z,72.01
2018-10-16T02:45:10.974Z,72.67
2018-10-16T02:47:40.568Z,72.32
2018-10-16T02:50:10.809Z,72.64
2018-10-16T02:52:40.271Z,73.29
2018-10-16T02:55:10.451Z,73.11
2018-10-16T02:57:39.965Z,72.86
2018-10-16T03:00:09.431Z,73.34
2018-10-16T03:02:38.746Z,73.15
2018-10-16T03:05:08.059Z,73.67
2018-10-16T03:07:37.394Z,73.84
2018-10-16T03:10:06.719Z,73.19
2018-10-16T03:12:36.148Z,72.98
2018-10-16T03:15:09.045Z,73.56
2018-10-16T03:17:38.494Z,73.91
2018-10-16T03:20:08.297Z,73.55
2018-10-16T03:22:38.179Z,74.05
2018-10-16T03:25:09.499Z,74.27
2018-10-16T03:30:17.318Z,73.97
2018-10-16T03:32:46.625Z,73.72
2018-10-16T03:35:15.943Z,74.74
2018-10-16T03:37:45.253Z,74.78
2018-10-16T03:40:14.653Z,74.71
2018-10-16T03:42:43.998Z,73.94
2018-10-16T03:45:13.750Z,74.61
2018-10-16T03:47:43.227Z,74.85
2018-10-16T03:50:12.447Z,74.73
2018-10-16T03:52:41.770Z,74.90
2018-10-16T03:55:11.118Z,74.40
2018-10-16T03:57:40.666Z,75.08
2018-10-16T04:00:11.191Z,74.29
2018-10-16T04:02:40.558Z,74.46
2018-10-16T04:05:10.005Z,75.17
2018-10-16T04:07:39.775Z,74.50
2018-10-16T04:10:09.563Z,74.56
2018-10-16T04:12:38.916Z,75.51
2018-10-16T04:15:09.645Z,75.30
2018-10-16T04:17:39.707Z,75.46
2018-10-16T04:20:09.041Z,75.71
2018-10-16T04:22:38.791Z,75.39
2018-10-16T04:25:09.294Z,75.00
2018-10-16T04:27:38.631Z,74.84
2018-10-16T04:30:08.487Z,75.84
2018-10-16T04:32:37.790Z,75.96
2018-10-16T04:35:16.874Z,76.40
2018-10-16T04:37:47.114Z,76.24
2018-10-16T04:40:16.434Z,75.98
2018-10-16T04:42:45.770Z,76.40
2018-10-16T04:45:15.092Z,76.51
2018-10-16T04:47:44.438Z,75.92
2018-10-16T04:50:13.768Z,76.62
2018-10-16T04:52:43.100Z,76.43
2018-10-16T04:55:12.490Z,76.29
2018-10-16T04:57:41.797Z,76.51
2018-10-16T05:00:11.119Z,76.50
2018-10-16T05:02:41.495Z,76.67
2018-10-16T05:05:22.202Z,76.24
2018-10-16T05:07:52.146Z,76.20
2018-10-16T05:10:22.006Z,76.61
2018-10-16T05:12:51.577Z,76.56
2018-10-16T05:15:26.755Z,76.67
2018-10-16T05:17:56.328Z,76.49
2018-10-16T05:20:25.799Z,77.20
2018-10-16T05:22:55.738Z,76.99
2018-10-16T05:25:26.085Z,77.18
2018-10-16T05:27:55.734Z,77.17
2018-10-16T05:30:25.294Z,77.44
2018-10-16T05:32:54.653Z,77.93
2018-10-16T05:35:23.990Z,77.63
2018-10-16T05:37:53.314Z,77.64
2018-10-16T05:40:22.636Z,78.08
2018-10-16T05:42:51.954Z,78.01
2018-10-16T05:45:21.307Z,78.56
2018-10-16T05:47:50.657Z,78.27
2018-10-16T05:50:19.983Z,78.22
2018-10-16T05:52:49.324Z,77.90
2018-10-16T05:55:18.651Z,78.17
2018-10-16T05:57:48.008Z,78.07
2018-10-16T06:00:34.172Z,78.09
2018-10-16T06:03:03.617Z,78.13
2018-10-16T06:05:32.953Z,78.61
2018-10-16T06:08:02.535Z,78.54
2018-10-16T06:10:31.857Z,78.80
2018-10-16T06:13:01.325Z,79.06
2018-10-16T06:15:30.647Z,79.22
2018-10-16T06:17:59.951Z,79.42
2018-10-16T06:20:29.275Z,79.41
2018-10-16T06:22:58.577Z,78.64
2018-10-16T06:25:27.891Z,78.96
2018-10-16T06:27:57.215Z,79.45
2018-10-16T06:30:26.604Z,79.07
2018-10-16T06:32:55.867Z,79.24
2018-10-16T06:35:25.186Z,79.35
2018-10-16T06:37:54.502Z,79.64
2018-10-16T06:40:23.856Z,79.66
2018-10-16T06:42:53.146Z,79.26
2018-10-16T06:45:22.524Z,78.98
2018-10-16T06:47:51.966Z,79.98
2018-10-16T06:50:21.193Z,79.83
2018-10-16T06:52:50.542Z,79.25
2018-10-16T06:55:19.894Z,79.19
2018-10-16T06:57:49.167Z,80.08
2018-10-16T07:00:18.549Z,79.34
2018-10-16T07:02:47.839Z,79.56
2018-10-16T07:05:17.154Z,79.41
2018-10-16T07:07:46.486Z,79.39
2018-10-16T07:10:15.837Z,80.19
2018-10-16T07:12:45.157Z,79.54
2018-10-16T07:15:14.471Z,79.70
2018-10-16T07:17:43.804Z,79.71
2018-10-16T07:20:13.474Z,79.13
2018-10-16T07:22:42.829Z,79.14
2018-10-16T07:25:12.155Z,79.12
2018-10-16T07:27:41.481Z,79.72
2018-10-16T07:30:13.941Z,78.94
2018-10-16T07:32:43.218Z,78.76
2018-10-16T07:35:12.539Z,78.56
2018-10-16T07:37:41.985Z,78.97
2018-10-16T07:40:12.066Z,78.45
2018-10-16T07:42:41.686Z,78.99
2018-10-16T07:45:11.057Z,78.64
2018-10-16T07:47:40.393Z,78.28
2018-10-16T07:50:11.687Z,78.56
2018-10-16T07:52:41.096Z,78.35
2018-10-16T07:55:12.581Z,78.35
2018-10-16T07:57:42.002Z,77.79
2018-10-16T08:00:12.608Z,77.18
2018-10-16T08:02:42.978Z,77.09
2018-10-16T08:05:12.796Z,76.88
2018-10-16T08:07:42.389Z,75.94
2018-10-16T08:10:13.318Z,76.61
2018-10-16T08:12:43.314Z,76.16
2018-10-16T08:15:12.796Z,76.05
2018-10-16T08:17:42.309Z,75.84
2018-10-16T08:20:11.639Z,75.37
2018-10-16T08:22:41.018Z,74.81
2018-10-16T08:25:10.340Z,74.65
2018-10-16T08:27:39.670Z,74.33
2018-10-16T08:30:09.903Z,74.87
2018-10-16T08:32:39.243Z,74.41
2018-10-16T08:35:08.599Z,75.00
2018-10-16T08:39:50.151Z,74.92
2018-10-16T08:43:39.669Z,75.00
2018-10-16T08:46:26.042Z,74.34
2018-10-16T08:49:12.327Z,74.25
2018-10-16T08:51:59.445Z,74.20
2018-10-16T08:55:31.557Z,74.21
2018-10-16T08:58:01.338Z,74.72
2018-10-16T09:00:30.726Z,74.05
2018-10-16T09:03:00.080Z,74.54
2018-10-16T09:05:29.999Z,74.07
2018-10-16T09:07:59.375Z,74.04
2018-10-16T09:10:28.896Z,73.13
2018-10-16T09:12:58.271Z,73.35
2018-10-16T09:15:27.605Z,72.93
2018-10-16T09:17:56.952Z,73.03
2018-10-16T09:20:26.315Z,72.99
2018-10-16T09:22:55.629Z,72.80
2018-10-16T09:25:24.937Z,71.92
2018-10-16T09:27:54.375Z,72.40
2018-10-16T09:30:23.698Z,72.38
2018-10-16T09:32:53.030Z,71.43
2018-10-16T09:35:22.924Z,71.64
2018-10-16T09:37:52.325Z,70.32
2018-10-16T09:40:21.615Z,69.83
2018-10-16T09:42:50.990Z,69.31
2018-10-16T09:45:20.314Z,69.33
2018-10-16T09:47:49.649Z,69.54
2018-10-16T09:50:19.002Z,68.53
2018-10-16T09:52:48.326Z,68.59
2018-10-16T09:55:17.674Z,68.73
2018-10-16T09:57:47.088Z,68.08
2018-10-16T10:00:21.611Z,67.54
2018-10-16T10:02:50.929Z,67.61
2018-10-16T10:05:20.895Z,67.30
2018-10-16T10:07:50.224Z,66.69
2018-10-16T10:10:19.557Z,66.72
2018-10-16T10:12:48.890Z,66.79
2018-10-16T10:17:59.213Z,67.04
2018-10-16T10:20:28.523Z,66.63
2018-10-16T10:22:57.867Z,67.36
2018-10-16T10:25:27.173Z,67.22
2018-10-16T10:27:56.507Z,67.79
2018-10-16T10:30:25.823Z,68.08
2018-10-16T10:32:55.157Z,67.34
2018-10-16T10:35:24.537Z,68.20
2018-10-16T10:37:53.794Z,67.76
2018-10-16T10:40:23.120Z,68.21
2018-10-16T10:42:52.424Z,67.31
2018-10-16T10:45:21.793Z,67.37
2018-10-16T10:47:51.125Z,67.72
2018-10-16T10:50:20.557Z,67.73
2018-10-16T10:52:49.818Z,67.36
2018-10-16T10:55:19.154Z,67.12
2018-10-16T10:57:48.462Z,66.85
2018-10-16T11:00:17.812Z,66.68
2018-10-16T11:02:48.501Z,66.85
2018-10-16T11:05:17.816Z,66.51
2018-10-16T11:07:50.111Z,66.19
2018-10-16T11:10:19.415Z,66.16
2018-10-16T11:12:48.721Z,65.24
2018-10-16T11:15:18.040Z,65.00
2018-10-16T11:17:47.358Z,65.35
2018-10-16T11:20:16.691Z,64.47
2018-10-16T11:22:46.006Z,64.23
2018-10-16T11:25:15.328Z,64.59
2018-10-16T11:27:44.676Z,63.52
2018-10-16T11:30:15.102Z,64.02
2018-10-16T11:32:44.552Z,63.37
2018-10-16T11:35:14.899Z,63.26
2018-10-16T11:37:44.258Z,63.26
2018-10-16T11:40:13.642Z,62.37
2018-10-16T11:42:43.186Z,62.80
2018-10-16T11:45:12.570Z,62.18
2018-10-16T11:47:41.829Z,61.63
2018-10-16T11:50:11.964Z,61.88
2018-10-16T11:52:41.626Z,61.51
2018-10-16T11:55:11.259Z,60.23
2018-10-16T11:57:40.607Z,59.92
2018-10-16T12:00:15.115Z,58.95
2018-10-16T12:02:44.649Z,59.04
2018-10-16T12:05:15.030Z,58.02
2018-10-16T12:07:44.365Z,57.46
2018-10-16T12:10:13.678Z,57.79
2018-10-16T12:12:43.003Z,56.69
2018-10-16T12:15:12.382Z,55.14
2018-10-16T12:19:51.055Z,53.87
2018-10-16T12:22:20.338Z,53.61
2018-10-16T12:24:49.714Z,52.62
2018-10-16T12:27:19.031Z,52.39
2018-10-16T12:29:48.334Z,52.62
2018-10-16T12:32:17.676Z,51.27
2018-10-16T12:34:46.982Z,50.90
2018-10-16T12:37:16.303Z,50.40
2018-10-16T12:39:45.630Z,49.51
2018-10-16T12:42:15.004Z,48.07
2018-10-16T12:44:44.263Z,45.29
2018-10-16T12:47:13.651Z,44.65
2018-10-16T12:49:42.939Z,42.89
2018-10-16T12:52:12.257Z,42.32
2018-10-16T12:54:43.149Z,41.11
2018-10-16T12:57:12.498Z,39.86
2018-10-16T12:59:41.831Z,38.51
2018-10-16T13:02:11.192Z,38.16
2018-10-16T13:04:40.515Z,37.04
2018-10-16T13:07:13.935Z,37.47
2018-10-16T13:09:44.175Z,36.46
2018-10-16T13:12:14.594Z,35.84
2018-10-16T13:14:43.926Z,35.18
2018-10-16T13:17:13.257Z,35.04
2018-10-16T13:19:42.587Z,34.41
2018-10-16T13:22:11.908Z,34.33
2018-10-16T13:24:41.284Z,33.49
2018-10-16T13:27:10.612Z,33.98
2018-10-16T13:29:40.078Z,35.64
2018-10-16T13:32:09.402Z,36.76
2018-10-16T13:34:38.634Z,38.52
2018-10-16T13:37:07.977Z,37.70
2018-10-16T13:39:37.407Z,39.23
2018-10-16T13:42:06.762Z,39.41
2018-10-16T13:44:36.061Z,39.72
2018-10-16T13:47:05.370Z,41.21
2018-10-16T13:49:34.677Z,40.23
2018-10-16T13:52:04.112Z,40.92
2018-10-16T13:54:33.447Z,41.56
2018-10-16T13:57:02.796Z,41.87
2018-10-16T13:59:32.107Z,41.80
2018-10-16T14:02:01.462Z,41.82
2018-10-16T14:04:30.776Z,41.51
2018-10-16T14:07:00.072Z,41.92
2018-10-16T14:09:29.377Z,41.90
2018-10-16T14:11:58.711Z,43.20
2018-10-16T14:14:28.127Z,43.20
2018-10-16T14:16:57.464Z,43.17
2018-10-16T14:19:26.814Z,43.08
2018-10-16T14:21:56.220Z,43.47
2018-10-16T14:24:25.488Z,42.56
2018-10-16T14:26:54.816Z,43.08
2018-10-16T14:29:24.251Z,43.22
2018-10-16T14:31:53.637Z,42.54
2018-10-16T14:34:22.992Z,42.85
2018-10-16T14:36:52.277Z,42.43
2018-10-16T14:39:21.630Z,42.61
2018-10-16T14:41:50.969Z,42.66
2018-10-16T14:44:20.315Z,42.62
2018-10-16T14:46:49.686Z,44.00
2018-10-16T14:49:19.137Z,43.29
2018-10-16T14:51:48.466Z,43.31
2018-10-16T14:54:17.783Z,43.97
2018-10-16T14:56:47.190Z,43.91
2018-10-16T14:59:16.474Z,44.10
2018-10-16T15:01:45.800Z,44.21
2018-10-16T15:04:15.199Z,45.33
2018-10-16T15:06:44.487Z,45.07
2018-10-16T15:09:13.811Z,44.81
2018-10-16T15:11:43.167Z,45.63
2018-10-16T15:14:12.537Z,45.79
2018-10-16T15:16:42.093Z,45.57
2018-10-16T15:19:11.344Z,45.95
2018-10-16T15:21:40.786Z,46.40
2018-10-16T15:24:10.187Z,46.14
2018-10-16T15:26:39.474Z,46.55
2018-10-16T15:29:08.899Z,46.66
2018-10-16T15:31:38.235Z,47.07
2018-10-16T15:34:07.693Z,47.51
2018-10-16T15:36:37.015Z,47.75
2018-10-16T15:39:10.934Z,47.93
2018-10-16T15:41:40.393Z,47.94
2018-10-16T15:44:10.060Z,48.25
2018-10-16T15:46:39.883Z,47.59
2018-10-16T15:49:09.243Z,47.99
2018-10-16T15:51:38.555Z,47.92
2018-10-16T15:54:07.979Z,48.13
2018-10-16T15:56:37.436Z,49.06
2018-10-16T15:59:06.947Z,48.72
2018-10-16T16:01:36.448Z,48.67
2018-10-16T16:04:06.378Z,48.88
2018-10-16T16:06:35.963Z,49.26
2018-10-16T16:09:07.821Z,50.07
2018-10-16T16:11:37.317Z,49.33
2018-10-16T16:14:07.026Z,49.49
2018-10-16T16:16:36.518Z,50.48
2018-10-16T16:19:07.220Z,50.43
2018-10-16T16:21:36.686Z,50.72
2018-10-16T16:24:06.633Z,52.23
2018-10-16T16:26:36.095Z,52.65
2018-10-16T16:29:06.307Z,52.58
2018-10-16T16:31:35.824Z,54.15
2018-10-16T16:34:06.828Z,54.12
2018-10-16T16:36:36.403Z,54.35
2018-10-16T16:39:10.515Z,54.86
2018-10-16T16:41:39.879Z,55.52
2018-10-16T16:44:09.299Z,56.92
2018-10-16T16:46:44.715Z,56.74
2018-10-16T16:49:14.272Z,58.00
2018-10-16T16:51:43.618Z,58.00
2018-10-16T16:54:12.937Z,59.35
2018-10-16T16:56:42.334Z,59.09
2018-10-16T16:59:11.725Z,59.66
2018-10-16T17:01:41.005Z,60.69
2018-10-16T17:04:10.378Z,61.05
2018-10-16T17:06:39.704Z,61.31
2018-10-16T17:09:11.821Z,60.91
2018-10-16T17:11:41.159Z,61.98
2018-10-16T17:14:10.521Z,62.21
2018-10-16T17:16:39.799Z,62.06
2018-10-16T17:19:09.290Z,62.68
2018-10-16T17:21:38.650Z,63.25
2018-10-16T17:24:07.993Z,63.80
2018-10-16T17:26:37.365Z,63.63
2018-10-16T17:29:06.978Z,63.57
2018-10-16T17:31:36.352Z,64.51
2018-10-16T17:34:06.571Z,64.50
2018-10-16T17:36:35.835Z,64.68
2018-10-16T17:39:07.101Z,64.87
2018-10-16T17:41:36.382Z,64.21
2018-10-16T17:44:07.139Z,64.34
2018-10-16T17:46:36.603Z,64.35
2018-10-16T17:49:06.815Z,64.25
2018-10-16T17:51:36.149Z,65.15
2018-10-16T17:54:06.603Z,65.48
2018-10-16T17:56:36.990Z,64.94
2018-10-16T17:59:06.726Z,65.26
2018-10-16T18:01:36.045Z,65.52
2018-10-16T18:04:06.282Z,65.75
2018-10-16T18:06:35.645Z,65.62
2018-10-16T18:09:08.031Z,65.72
2018-10-16T18:11:37.518Z,65.27
2018-10-16T18:14:07.446Z,66.40
2018-10-16T18:16:36.937Z,66.65
2018-10-16T18:19:06.807Z,66.89
2018-10-16T18:21:36.201Z,67.00
2018-10-16T18:24:06.995Z,66.90
2018-10-16T18:26:36.343Z,66.34
2018-10-16T18:29:06.951Z,67.24
2018-10-16T18:31:36.293Z,67.21
2018-10-16T18:34:06.620Z,65.94
2018-10-16T18:36:35.994Z,66.92
2018-10-16T18:39:08.652Z,66.43
2018-10-16T18:41:38.325Z,66.42
2018-10-16T18:44:07.701Z,66.44
2018-10-16T18:46:37.044Z,66.63
2018-10-16T18:49:06.640Z,66.57
2018-10-16T18:51:35.962Z,66.90
2018-10-16T18:54:06.151Z,67.82
2018-10-16T18:56:35.470Z,67.81
2018-10-16T18:59:06.074Z,67.53
2018-10-16T19:01:35.411Z,67.68
2018-10-16T19:04:04.954Z,67.68
2018-10-16T19:06:34.294Z,67.64
2018-10-16T19:09:04.869Z,68.31
2018-10-16T19:11:34.210Z,68.36
2018-10-16T19:14:03.615Z,67.95
2018-10-16T19:16:32.901Z,68.77
2018-10-16T19:19:02.294Z,69.03
2018-10-16T19:21:31.689Z,68.81
2018-10-16T19:24:01.005Z,69.67
2018-10-16T19:26:30.351Z,69.58
2018-10-16T19:28:59.678Z,69.12
2018-10-16T19:31:29.024Z,69.53
2018-10-16T19:34:00.003Z,69.73
2018-10-16T19:36:29.334Z,70.27
2018-10-16T19:38:58.687Z,70.62
2018-10-16T19:41:27.978Z,70.36
2018-10-16T19:43:57.442Z,70.60
2018-10-16T19:46:26.774Z,71.21
2018-10-16T19:48:56.201Z,71.26
2018-10-16T19:51:32.980Z,71.49
2018-10-16T19:54:02.569Z,71.78
2018-10-16T19:56:32.102Z,71.06
2018-10-16T19:59:01.594Z,71.78
2018-10-16T20:01:31.907Z,71.25
2018-10-16T20:04:01.362Z,71.55
2018-10-16T20:06:30.869Z,71.42
2018-10-16T20:09:09.521Z,71.06
2018-10-16T20:11:38.953Z,71.93
2018-10-16T20:14:08.545Z,71.13
2018-10-16T20:16:37.959Z,71.86
2018-10-16T20:19:07.751Z,71.74
2018-10-16T20:21:37.287Z,70.98
2018-10-16T20:24:07.128Z,71.06
2018-10-16T20:26:38.073Z,70.55
2018-10-16T20:29:07.669Z,70.25
2018-10-16T20:34:09.301Z,70.76
2018-10-16T20:36:39.004Z,69.97
2018-10-16T20:39:12.603Z,71.14
2018-10-16T20:41:42.419Z,71.20
2018-10-16T20:44:15.822Z,70.82
2018-10-16T20:46:45.329Z,71.56
2018-10-16T20:49:14.943Z,71.22
2018-10-16T20:51:45.503Z,70.72
2018-10-16T20:54:14.811Z,70.82
2018-10-16T20:56:44.242Z,70.84
2018-10-16T20:59:13.559Z,71.35
2018-10-16T21:01:43.525Z,71.51
2018-10-16T21:04:12.897Z,71.16
2018-10-16T21:06:42.461Z,71.20
2018-10-16T21:09:11.605Z,71.08
2018-10-16T21:11:40.913Z,71.56
2018-10-16T21:14:10.210Z,70.98
2018-10-16T21:16:39.540Z,70.54
2018-10-16T21:19:09.739Z,71.47
2018-10-16T21:21:38.921Z,71.46
2018-10-16T21:24:08.250Z,71.12
2018-10-16T21:26:37.737Z,71.13
2018-10-16T21:29:07.107Z,70.65
2018-10-16T21:31:36.440Z,70.84
2018-10-16T21:34:06.356Z,71.01
2018-10-16T21:36:35.671Z,70.53
2018-10-16T21:39:06.876Z,71.28
2018-10-16T21:41:36.161Z,70.73
2018-10-16T21:44:06.403Z,70.80
2018-10-16T21:46:35.729Z,70.68
2018-10-16T21:49:06.452Z,71.24
2018-10-16T21:51:35.754Z,70.63
2018-10-16T21:54:08.817Z,71.14
2018-10-16T21:56:39.130Z,70.30
2018-10-16T21:59:08.548Z,70.58
2018-10-16T22:01:43.057Z,70.90
2018-10-16T22:04:12.384Z,70.28
2018-10-16T22:06:41.689Z,70.54
2018-10-16T22:09:14.413Z,70.56
2018-10-16T22:11:44.057Z,70.30
2018-10-16T22:14:13.439Z,70.51
2018-10-16T22:16:42.757Z,70.75
2018-10-16T22:19:12.265Z,70.98
2018-10-16T22:21:41.425Z,70.44
2018-10-16T22:24:10.763Z,70.04
2018-10-16T22:26:40.107Z,70.75
2018-10-16T22:29:09.484Z,69.86
2018-10-16T22:31:38.824Z,70.45
2018-10-16T22:34:08.148Z,69.87
2018-10-16T22:36:37.449Z,69.88
2018-10-16T22:39:09.565Z,70.31
2018-10-16T22:41:39.097Z,70.50
2018-10-16T22:44:09.048Z,69.77
2018-10-16T22:46:38.377Z,70.16
2018-10-16T22:49:07.825Z,70.30
2018-10-16T22:51:37.084Z,69.78
2018-10-16T22:54:06.590Z,70.45
2018-10-16T22:56:35.897Z,70.46
2018-10-16T22:59:06.232Z,69.61
2018-10-16T23:01:42.641Z,69.78
2018-10-16T23:04:19.562Z,69.79
2018-10-16T23:06:57.024Z,69.81
2018-10-16T23:09:34.373Z,70.57
2018-10-16T23:12:12.737Z,70.39
2018-10-16T23:14:47.958Z,70.32
2018-10-16T23:17:23.439Z,69.89
2018-10-16T23:20:00.462Z,70.00
2018-10-16T23:22:37.596Z,69.84
2018-10-16T23:25:16.907Z,69.81
2018-10-16T23:27:50.754Z,69.83
2018-10-16T23:30:27.501Z,70.14
2018-10-16T23:33:04.500Z,69.79
2018-10-16T23:35:38.664Z,70.34
2018-10-16T23:38:09.308Z,69.62
2018-10-16T23:40:47.053Z,70.21
2018-10-16T23:43:24.893Z,69.94
2018-10-16T23:46:01.192Z,70.16
2018-10-16T23:48:38.549Z,70.22
2018-10-16T23:51:15.849Z,70.37
2018-10-16T23:53:54.086Z,70.34
2018-10-16T23:56:37.307Z,70.09
2018-10-16T23:59:14.232Z,70.21
